sensor_id;sensor_type;location;lat;lon;timestamp;P1;durP1;ratioP1;P2;durP2;ratioP2
47958;SDS011;33718;50.910;-1.514;2022-12-05T00:00:12;11.30;;;7.18;;
47958;SDS011;33718;50.910;-1.514;2022-12-05T00:02:30;9.23;;;6.93;;
47958;SDS011;33718;50.910;-1.514;2022-12-05T00:04:41;7.25;;;6.55;;
47958;SDS011;33718;50.910;-1.514;2022-12-05T00:06:57;10.55;;;8.18;;
47958;SDS011;33718;50.910;-1.514;2022-12-05T00:09:14;12.45;;;8.68;;
47958;SDS011;33718;50.910;-1.514;2022-12-05T00:11:17;11.10;;;8.40;;
47958;SDS011;33718;50.910;-1.514;2022-12-05T00:13:19;10.98;;;9.32;;
47958;SDS011;33718;50.910;-1.514;2022-12-05T00:15:21;11.75;;;9.10;;
47958;SDS011;33718;50.910;-1.514;2022-12-05T00:17:22;10.98;;;9.27;;
47958;SDS011;33718;50.910;-1.514;2022-12-05T00:19:24;11.30;;;8.68;;
47958;SDS011;33718;50.910;-1.514;2022-12-05T00:21:26;15.68;;;10.35;;
47958;SDS011;33718;50.910;-1.514;2022-12-05T00:23:28;13.57;;;9.07;;
47958;SDS011;33718;50.910;-1.514;2022-12-05T00:25:30;12.43;;;9.93;;
47958;SDS011;33718;50.910;-1.514;2022-12-05T00:27:32;16.48;;;10.50;;
47958;SDS011;33718;50.910;-1.514;2022-12-05T00:29:34;12.18;;;9.50;;
47958;SDS011;33718;50.910;-1.514;2022-12-05T00:31:35;14.63;;;11.32;;
47958;SDS011;33718;50.910;-1.514;2022-12-05T00:33:37;15.35;;;10.77;;
47958;SDS011;33718;50.910;-1.514;2022-12-05T00:35:39;11.68;;;9.27;;
47958;SDS011;33718;50.910;-1.514;2022-12-05T00:37:40;13.63;;;9.85;;
47958;SDS011;33718;50.910;-1.514;2022-12-05T00:39:42;10.77;;;8.70;;
47958;SDS011;33718;50.910;-1.514;2022-12-05T00:41:43;10.93;;;9.13;;
47958;SDS011;33718;50.910;-1.514;2022-12-05T00:43:45;9.48;;;8.27;;
47958;SDS011;33718;50.910;-1.514;2022-12-05T00:45:47;14.02;;;10.90;;
47958;SDS011;33718;50.910;-1.514;2022-12-05T00:47:48;11.13;;;8.23;;
47958;SDS011;33718;50.910;-1.514;2022-12-05T00:49:50;12.65;;;9.68;;
47958;SDS011;33718;50.910;-1.514;2022-12-05T00:51:51;13.90;;;9.00;;
47958;SDS011;33718;50.910;-1.514;2022-12-05T00:53:54;12.32;;;8.27;;
47958;SDS011;33718;50.910;-1.514;2022-12-05T00:55:59;9.65;;;8.32;;
47958;SDS011;33718;50.910;-1.514;2022-12-05T00:58:01;12.13;;;8.50;;
47958;SDS011;33718;50.910;-1.514;2022-12-05T01:00:04;9.77;;;7.97;;
47958;SDS011;33718;50.910;-1.514;2022-12-05T01:02:05;11.25;;;8.45;;
47958;SDS011;33718;50.910;-1.514;2022-12-05T01:04:25;7.30;;;6.25;;
47958;SDS011;33718;50.910;-1.514;2022-12-05T01:06:27;8.85;;;7.13;;
47958;SDS011;33718;50.910;-1.514;2022-12-05T01:08:29;14.05;;;9.88;;
47958;SDS011;33718;50.910;-1.514;2022-12-05T01:13:09;11.70;;;8.85;;
47958;SDS011;33718;50.910;-1.514;2022-12-05T01:15:10;10.63;;;8.10;;
47958;SDS011;33718;50.910;-1.514;2022-12-05T01:17:12;9.57;;;7.70;;
47958;SDS011;33718;50.910;-1.514;2022-12-05T01:19:23;12.00;;;7.57;;
47958;SDS011;33718;50.910;-1.514;2022-12-05T01:21:25;12.68;;;9.20;;
47958;SDS011;33718;50.910;-1.514;2022-12-05T01:23:27;11.90;;;8.98;;
47958;SDS011;33718;50.910;-1.514;2022-12-05T01:25:28;13.57;;;10.45;;
47958;SDS011;33718;50.910;-1.514;2022-12-05T01:27:30;12.00;;;8.38;;
47958;SDS011;33718;50.910;-1.514;2022-12-05T01:29:31;10.63;;;8.43;;
47958;SDS011;33718;50.910;-1.514;2022-12-05T01:31:34;11.18;;;8.02;;
47958;SDS011;33718;50.910;-1.514;2022-12-05T01:33:36;10.27;;;8.45;;
47958;SDS011;33718;50.910;-1.514;2022-12-05T01:35:38;9.48;;;7.53;;
47958;SDS011;33718;50.910;-1.514;2022-12-05T01:37:40;13.27;;;8.90;;
47958;SDS011;33718;50.910;-1.514;2022-12-05T01:39:42;13.15;;;8.85;;
47958;SDS011;33718;50.910;-1.514;2022-12-05T01:41:44;12.55;;;9.10;;
47958;SDS011;33718;50.910;-1.514;2022-12-05T01:45:54;12.93;;;9.10;;
47958;SDS011;33718;50.910;-1.514;2022-12-05T01:47:56;12.23;;;9.80;;
47958;SDS011;33718;50.910;-1.514;2022-12-05T01:49:58;10.40;;;8.25;;
47958;SDS011;33718;50.910;-1.514;2022-12-05T01:52:01;11.00;;;8.50;;
47958;SDS011;33718;50.910;-1.514;2022-12-05T01:54:04;12.65;;;8.68;;
47958;SDS011;33718;50.910;-1.514;2022-12-05T01:56:06;16.00;;;11.85;;
47958;SDS011;33718;50.910;-1.514;2022-12-05T01:58:08;19.92;;;13.15;;
47958;SDS011;33718;50.910;-1.514;2022-12-05T02:00:11;14.43;;;9.93;;
47958;SDS011;33718;50.910;-1.514;2022-12-05T02:02:13;12.23;;;8.98;;
47958;SDS011;33718;50.910;-1.514;2022-12-05T02:04:15;14.57;;;10.65;;
47958;SDS011;33718;50.910;-1.514;2022-12-05T02:06:17;14.23;;;9.05;;
47958;SDS011;33718;50.910;-1.514;2022-12-05T02:08:18;14.90;;;8.88;;
47958;SDS011;33718;50.910;-1.514;2022-12-05T02:10:20;12.13;;;8.63;;
47958;SDS011;33718;50.910;-1.514;2022-12-05T02:12:22;14.20;;;9.20;;
47958;SDS011;33718;50.910;-1.514;2022-12-05T02:16:39;12.73;;;9.02;;
47958;SDS011;33718;50.910;-1.514;2022-12-05T02:30:09;18.17;;;11.95;;
47958;SDS011;33718;50.910;-1.514;2022-12-05T02:32:28;17.97;;;10.67;;
47958;SDS011;33718;50.910;-1.514;2022-12-05T02:36:39;13.80;;;9.73;;
47958;SDS011;33718;50.910;-1.514;2022-12-05T02:38:56;13.30;;;9.07;;
47958;SDS011;33718;50.910;-1.514;2022-12-05T02:42:04;18.25;;;11.20;;
47958;SDS011;33718;50.910;-1.514;2022-12-05T02:45:40;10.95;;;8.07;;
47958;SDS011;33718;50.910;-1.514;2022-12-05T02:47:49;13.38;;;8.73;;
47958;SDS011;33718;50.910;-1.514;2022-12-05T02:49:53;13.25;;;9.30;;
47958;SDS011;33718;50.910;-1.514;2022-12-05T02:52:01;14.82;;;11.00;;
47958;SDS011;33718;50.910;-1.514;2022-12-05T02:54:07;13.90;;;9.27;;
47958;SDS011;33718;50.910;-1.514;2022-12-05T02:56:13;11.80;;;7.68;;
47958;SDS011;33718;50.910;-1.514;2022-12-05T02:58:20;12.73;;;8.63;;
47958;SDS011;33718;50.910;-1.514;2022-12-05T03:00:25;8.52;;;6.50;;
47958;SDS011;33718;50.910;-1.514;2022-12-05T03:02:30;7.28;;;5.47;;
47958;SDS011;33718;50.910;-1.514;2022-12-05T03:04:35;10.05;;;7.72;;
47958;SDS011;33718;50.910;-1.514;2022-12-05T03:06:46;17.88;;;10.70;;
47958;SDS011;33718;50.910;-1.514;2022-12-05T03:09:15;12.30;;;8.27;;
47958;SDS011;33718;50.910;-1.514;2022-12-05T03:11:17;9.25;;;6.35;;
47958;SDS011;33718;50.910;-1.514;2022-12-05T03:13:26;12.15;;;8.77;;
47958;SDS011;33718;50.910;-1.514;2022-12-05T03:15:33;12.43;;;8.02;;
47958;SDS011;33718;50.910;-1.514;2022-12-05T03:17:48;13.27;;;8.48;;
47958;SDS011;33718;50.910;-1.514;2022-12-05T03:22:02;10.85;;;7.57;;
47958;SDS011;33718;50.910;-1.514;2022-12-05T03:24:07;9.50;;;6.85;;
47958;SDS011;33718;50.910;-1.514;2022-12-05T03:28:28;7.28;;;5.50;;
47958;SDS011;33718;50.910;-1.514;2022-12-05T03:30:33;10.15;;;7.07;;
47958;SDS011;33718;50.910;-1.514;2022-12-05T03:38:57;12.82;;;8.27;;
47958;SDS011;33718;50.910;-1.514;2022-12-05T03:43:10;11.70;;;8.40;;
47958;SDS011;33718;50.910;-1.514;2022-12-05T03:45:17;10.00;;;7.47;;
47958;SDS011;33718;50.910;-1.514;2022-12-05T03:51:36;8.65;;;6.35;;
47958;SDS011;33718;50.910;-1.514;2022-12-05T03:53:43;8.52;;;6.05;;
47958;SDS011;33718;50.910;-1.514;2022-12-05T03:55:49;7.72;;;5.43;;
47958;SDS011;33718;50.910;-1.514;2022-12-05T03:59:59;6.05;;;4.78;;
47958;SDS011;33718;50.910;-1.514;2022-12-05T04:02:25;6.22;;;4.65;;
47958;SDS011;33718;50.910;-1.514;2022-12-05T04:04:29;5.15;;;4.20;;
47958;SDS011;33718;50.910;-1.514;2022-12-05T04:06:33;5.00;;;4.40;;
47958;SDS011;33718;50.910;-1.514;2022-12-05T04:08:36;5.07;;;4.20;;
47958;SDS011;33718;50.910;-1.514;2022-12-05T04:10:39;6.78;;;5.50;;
47958;SDS011;33718;50.910;-1.514;2022-12-05T04:12:51;6.68;;;5.28;;
47958;SDS011;33718;50.910;-1.514;2022-12-05T04:14:59;10.13;;;6.65;;
47958;SDS011;33718;50.910;-1.514;2022-12-05T04:17:06;8.48;;;5.88;;
47958;SDS011;33718;50.910;-1.514;2022-12-05T04:19:17;6.82;;;5.57;;
47958;SDS011;33718;50.910;-1.514;2022-12-05T04:21:20;6.95;;;5.40;;
47958;SDS011;33718;50.910;-1.514;2022-12-05T04:23:41;7.05;;;5.00;;
47958;SDS011;33718;50.910;-1.514;2022-12-05T04:30:11;5.55;;;4.53;;
47958;SDS011;33718;50.910;-1.514;2022-12-05T04:32:13;5.72;;;3.95;;
47958;SDS011;33718;50.910;-1.514;2022-12-05T04:34:15;9.20;;;6.43;;
47958;SDS011;33718;50.910;-1.514;2022-12-05T04:36:27;6.63;;;4.30;;
47958;SDS011;33718;50.910;-1.514;2022-12-05T04:38:49;6.25;;;5.28;;
47958;SDS011;33718;50.910;-1.514;2022-12-05T04:41:02;4.30;;;3.72;;
47958;SDS011;33718;50.910;-1.514;2022-12-05T04:43:04;3.85;;;3.22;;
47958;SDS011;33718;50.910;-1.514;2022-12-05T04:45:07;4.60;;;4.00;;
47958;SDS011;33718;50.910;-1.514;2022-12-05T04:47:10;6.68;;;4.45;;
47958;SDS011;33718;50.910;-1.514;2022-12-05T04:49:16;4.78;;;3.70;;
47958;SDS011;33718;50.910;-1.514;2022-12-05T04:51:21;6.13;;;4.78;;
47958;SDS011;33718;50.910;-1.514;2022-12-05T04:53:23;4.05;;;3.45;;
47958;SDS011;33718;50.910;-1.514;2022-12-05T04:55:26;4.35;;;3.88;;
47958;SDS011;33718;50.910;-1.514;2022-12-05T04:58:05;5.50;;;4.22;;
47958;SDS011;33718;50.910;-1.514;2022-12-05T04:59:59;4.47;;;3.80;;
47958;SDS011;33718;50.910;-1.514;2022-12-05T05:02:05;4.97;;;4.32;;
47958;SDS011;33718;50.910;-1.514;2022-12-05T05:04:12;4.28;;;3.85;;
47958;SDS011;33718;50.910;-1.514;2022-12-05T05:06:15;4.43;;;3.60;;
47958;SDS011;33718;50.910;-1.514;2022-12-05T05:08:24;3.42;;;3.13;;
47958;SDS011;33718;50.910;-1.514;2022-12-05T05:10:38;5.68;;;3.35;;
47958;SDS011;33718;50.910;-1.514;2022-12-05T05:12:42;5.10;;;4.60;;
47958;SDS011;33718;50.910;-1.514;2022-12-05T05:14:44;5.72;;;4.43;;
47958;SDS011;33718;50.910;-1.514;2022-12-05T05:16:45;9.13;;;6.50;;
47958;SDS011;33718;50.910;-1.514;2022-12-05T05:18:48;6.28;;;5.32;;
47958;SDS011;33718;50.910;-1.514;2022-12-05T05:20:50;10.27;;;7.28;;
47958;SDS011;33718;50.910;-1.514;2022-12-05T05:22:54;8.25;;;6.50;;
47958;SDS011;33718;50.910;-1.514;2022-12-05T05:24:56;7.60;;;6.20;;
47958;SDS011;33718;50.910;-1.514;2022-12-05T05:26:58;11.80;;;8.60;;
47958;SDS011;33718;50.910;-1.514;2022-12-05T05:28:59;5.22;;;4.68;;
47958;SDS011;33718;50.910;-1.514;2022-12-05T05:31:02;8.73;;;6.82;;
47958;SDS011;33718;50.910;-1.514;2022-12-05T05:33:04;6.05;;;5.35;;
47958;SDS011;33718;50.910;-1.514;2022-12-05T05:35:05;6.78;;;5.40;;
47958;SDS011;33718;50.910;-1.514;2022-12-05T05:37:07;5.13;;;4.50;;
47958;SDS011;33718;50.910;-1.514;2022-12-05T05:39:10;9.10;;;6.70;;
47958;SDS011;33718;50.910;-1.514;2022-12-05T05:41:22;13.82;;;9.38;;
47958;SDS011;33718;50.910;-1.514;2022-12-05T05:43:27;13.27;;;9.25;;
47958;SDS011;33718;50.910;-1.514;2022-12-05T05:45:39;12.38;;;8.85;;
47958;SDS011;33718;50.910;-1.514;2022-12-05T05:47:58;9.63;;;7.20;;
47958;SDS011;33718;50.910;-1.514;2022-12-05T05:50:31;8.02;;;6.35;;
47958;SDS011;33718;50.910;-1.514;2022-12-05T05:52:41;8.57;;;6.57;;
47958;SDS011;33718;50.910;-1.514;2022-12-05T05:55:00;7.90;;;6.22;;
47958;SDS011;33718;50.910;-1.514;2022-12-05T05:57:02;11.40;;;9.55;;
47958;SDS011;33718;50.910;-1.514;2022-12-05T05:59:10;9.98;;;7.65;;
47958;SDS011;33718;50.910;-1.514;2022-12-05T06:01:23;7.35;;;6.15;;
47958;SDS011;33718;50.910;-1.514;2022-12-05T06:03:45;9.43;;;8.00;;
47958;SDS011;33718;50.910;-1.514;2022-12-05T06:06:07;12.95;;;9.45;;
47958;SDS011;33718;50.910;-1.514;2022-12-05T06:08:27;7.03;;;6.28;;
47958;SDS011;33718;50.910;-1.514;2022-12-05T06:10:47;7.72;;;6.82;;
47958;SDS011;33718;50.910;-1.514;2022-12-05T06:13:07;7.70;;;6.10;;
47958;SDS011;33718;50.910;-1.514;2022-12-05T06:15:28;8.40;;;7.25;;
47958;SDS011;33718;50.910;-1.514;2022-12-05T06:17:52;7.53;;;6.72;;
47958;SDS011;33718;50.910;-1.514;2022-12-05T06:20:21;9.73;;;7.53;;
47958;SDS011;33718;50.910;-1.514;2022-12-05T06:22:52;7.75;;;6.30;;
47958;SDS011;33718;50.910;-1.514;2022-12-05T06:24:53;7.65;;;5.78;;
47958;SDS011;33718;50.910;-1.514;2022-12-05T06:26:55;8.07;;;7.03;;
47958;SDS011;33718;50.910;-1.514;2022-12-05T06:28:56;10.63;;;7.03;;
47958;SDS011;33718;50.910;-1.514;2022-12-05T06:30:58;6.60;;;5.93;;
47958;SDS011;33718;50.910;-1.514;2022-12-05T06:33:00;6.30;;;5.30;;
47958;SDS011;33718;50.910;-1.514;2022-12-05T06:35:01;5.50;;;4.75;;
47958;SDS011;33718;50.910;-1.514;2022-12-05T06:37:09;6.47;;;5.72;;
47958;SDS011;33718;50.910;-1.514;2022-12-05T06:39:11;6.88;;;5.28;;
47958;SDS011;33718;50.910;-1.514;2022-12-05T06:41:13;4.88;;;4.40;;
47958;SDS011;33718;50.910;-1.514;2022-12-05T06:43:15;6.90;;;5.40;;
47958;SDS011;33718;50.910;-1.514;2022-12-05T06:45:17;6.07;;;5.05;;
47958;SDS011;33718;50.910;-1.514;2022-12-05T06:47:18;6.32;;;5.30;;
47958;SDS011;33718;50.910;-1.514;2022-12-05T06:49:20;5.43;;;4.53;;
47958;SDS011;33718;50.910;-1.514;2022-12-05T06:51:29;5.45;;;4.95;;
47958;SDS011;33718;50.910;-1.514;2022-12-05T06:53:31;5.10;;;3.95;;
47958;SDS011;33718;50.910;-1.514;2022-12-05T06:55:32;8.48;;;7.03;;
47958;SDS011;33718;50.910;-1.514;2022-12-05T06:57:34;5.78;;;5.15;;
47958;SDS011;33718;50.910;-1.514;2022-12-05T06:59:35;4.57;;;3.40;;
47958;SDS011;33718;50.910;-1.514;2022-12-05T07:01:37;5.07;;;4.57;;
47958;SDS011;33718;50.910;-1.514;2022-12-05T07:03:39;5.32;;;4.57;;
47958;SDS011;33718;50.910;-1.514;2022-12-05T07:05:41;5.43;;;3.92;;
47958;SDS011;33718;50.910;-1.514;2022-12-05T07:07:42;5.72;;;4.50;;
47958;SDS011;33718;50.910;-1.514;2022-12-05T07:09:44;4.82;;;3.97;;
47958;SDS011;33718;50.910;-1.514;2022-12-05T07:11:47;5.75;;;4.70;;
47958;SDS011;33718;50.910;-1.514;2022-12-05T07:13:49;5.18;;;4.68;;
47958;SDS011;33718;50.910;-1.514;2022-12-05T07:15:50;3.97;;;3.58;;
47958;SDS011;33718;50.910;-1.514;2022-12-05T07:17:52;3.95;;;3.33;;
47958;SDS011;33718;50.910;-1.514;2022-12-05T07:19:54;5.22;;;3.95;;
47958;SDS011;33718;50.910;-1.514;2022-12-05T07:21:56;5.55;;;5.00;;
47958;SDS011;33718;50.910;-1.514;2022-12-05T07:23:57;4.68;;;4.13;;
47958;SDS011;33718;50.910;-1.514;2022-12-05T07:26:02;3.88;;;3.58;;
47958;SDS011;33718;50.910;-1.514;2022-12-05T07:28:04;3.78;;;3.47;;
47958;SDS011;33718;50.910;-1.514;2022-12-05T07:30:06;4.20;;;3.80;;
47958;SDS011;33718;50.910;-1.514;2022-12-05T07:32:08;4.30;;;3.90;;
47958;SDS011;33718;50.910;-1.514;2022-12-05T07:34:10;5.35;;;4.85;;
47958;SDS011;33718;50.910;-1.514;2022-12-05T07:36:12;6.00;;;4.82;;
47958;SDS011;33718;50.910;-1.514;2022-12-05T07:38:14;5.72;;;5.13;;
47958;SDS011;33718;50.910;-1.514;2022-12-05T07:40:16;3.83;;;3.53;;
47958;SDS011;33718;50.910;-1.514;2022-12-05T07:42:17;3.30;;;3.03;;
47958;SDS011;33718;50.910;-1.514;2022-12-05T07:44:19;6.00;;;5.05;;
47958;SDS011;33718;50.910;-1.514;2022-12-05T07:46:20;4.50;;;4.10;;
47958;SDS011;33718;50.910;-1.514;2022-12-05T07:48:22;4.53;;;4.13;;
47958;SDS011;33718;50.910;-1.514;2022-12-05T07:50:24;5.07;;;4.10;;
47958;SDS011;33718;50.910;-1.514;2022-12-05T07:52:25;3.58;;;3.28;;
47958;SDS011;33718;50.910;-1.514;2022-12-05T07:54:28;5.78;;;4.88;;
47958;SDS011;33718;50.910;-1.514;2022-12-05T07:56:31;6.30;;;5.03;;
47958;SDS011;33718;50.910;-1.514;2022-12-05T07:58:33;6.40;;;5.30;;
47958;SDS011;33718;50.910;-1.514;2022-12-05T08:00:35;6.70;;;5.45;;
47958;SDS011;33718;50.910;-1.514;2022-12-05T08:02:36;6.25;;;5.65;;
47958;SDS011;33718;50.910;-1.514;2022-12-05T08:04:41;8.93;;;5.70;;
47958;SDS011;33718;50.910;-1.514;2022-12-05T08:06:42;9.68;;;7.35;;
47958;SDS011;33718;50.910;-1.514;2022-12-05T08:08:44;5.97;;;5.25;;
47958;SDS011;33718;50.910;-1.514;2022-12-05T08:10:46;7.43;;;6.28;;
47958;SDS011;33718;50.910;-1.514;2022-12-05T08:12:47;7.93;;;6.55;;
47958;SDS011;33718;50.910;-1.514;2022-12-05T08:14:49;7.95;;;6.55;;
47958;SDS011;33718;50.910;-1.514;2022-12-05T08:16:50;7.65;;;5.88;;
47958;SDS011;33718;50.910;-1.514;2022-12-05T08:18:56;13.00;;;10.77;;
47958;SDS011;33718;50.910;-1.514;2022-12-05T08:21:01;12.02;;;9.57;;
47958;SDS011;33718;50.910;-1.514;2022-12-05T08:23:03;9.65;;;6.93;;
47958;SDS011;33718;50.910;-1.514;2022-12-05T08:25:04;7.97;;;7.03;;
47958;SDS011;33718;50.910;-1.514;2022-12-05T08:27:06;7.47;;;6.32;;
47958;SDS011;33718;50.910;-1.514;2022-12-05T08:29:10;6.60;;;5.88;;
47958;SDS011;33718;50.910;-1.514;2022-12-05T08:31:16;8.10;;;7.05;;
47958;SDS011;33718;50.910;-1.514;2022-12-05T08:33:18;9.57;;;8.40;;
47958;SDS011;33718;50.910;-1.514;2022-12-05T08:35:20;9.38;;;8.40;;
47958;SDS011;33718;50.910;-1.514;2022-12-05T08:37:22;9.38;;;7.32;;
47958;SDS011;33718;50.910;-1.514;2022-12-05T08:39:23;9.13;;;7.55;;
47958;SDS011;33718;50.910;-1.514;2022-12-05T08:41:27;11.07;;;8.15;;
47958;SDS011;33718;50.910;-1.514;2022-12-05T08:43:30;12.50;;;9.68;;
47958;SDS011;33718;50.910;-1.514;2022-12-05T08:45:33;11.50;;;9.23;;
47958;SDS011;33718;50.910;-1.514;2022-12-05T08:47:35;20.67;;;15.15;;
47958;SDS011;33718;50.910;-1.514;2022-12-05T08:49:41;13.18;;;10.30;;
47958;SDS011;33718;50.910;-1.514;2022-12-05T08:51:50;15.00;;;12.05;;
47958;SDS011;33718;50.910;-1.514;2022-12-05T08:54:00;13.85;;;10.80;;
47958;SDS011;33718;50.910;-1.514;2022-12-05T08:56:29;15.95;;;12.50;;
47958;SDS011;33718;50.910;-1.514;2022-12-05T08:58:55;14.02;;;11.32;;
47958;SDS011;33718;50.910;-1.514;2022-12-05T09:01:28;16.58;;;13.55;;
47958;SDS011;33718;50.910;-1.514;2022-12-05T09:03:50;11.40;;;9.88;;
47958;SDS011;33718;50.910;-1.514;2022-12-05T09:08:40;15.90;;;12.52;;
47958;SDS011;33718;50.910;-1.514;2022-12-05T09:10:58;14.18;;;11.30;;
47958;SDS011;33718;50.910;-1.514;2022-12-05T09:13:10;13.32;;;10.68;;
47958;SDS011;33718;50.910;-1.514;2022-12-05T09:15:37;15.25;;;11.63;;
47958;SDS011;33718;50.910;-1.514;2022-12-05T09:17:45;17.30;;;11.95;;
47958;SDS011;33718;50.910;-1.514;2022-12-05T09:19:57;15.15;;;11.77;;
47958;SDS011;33718;50.910;-1.514;2022-12-05T09:22:10;13.05;;;10.48;;
47958;SDS011;33718;50.910;-1.514;2022-12-05T09:24:24;15.07;;;10.50;;
47958;SDS011;33718;50.910;-1.514;2022-12-05T09:26:38;13.90;;;11.07;;
47958;SDS011;33718;50.910;-1.514;2022-12-05T09:28:49;15.52;;;12.85;;
47958;SDS011;33718;50.910;-1.514;2022-12-05T09:31:20;17.60;;;12.05;;
47958;SDS011;33718;50.910;-1.514;2022-12-05T09:33:22;18.15;;;13.20;;
47958;SDS011;33718;50.910;-1.514;2022-12-05T09:35:24;14.45;;;10.05;;
47958;SDS011;33718;50.910;-1.514;2022-12-05T09:37:26;11.40;;;10.15;;
47958;SDS011;33718;50.910;-1.514;2022-12-05T09:39:43;14.27;;;10.27;;
47958;SDS011;33718;50.910;-1.514;2022-12-05T09:44:05;15.10;;;11.68;;
47958;SDS011;33718;50.910;-1.514;2022-12-05T09:48:37;11.23;;;10.13;;
47958;SDS011;33718;50.910;-1.514;2022-12-05T09:50:47;15.05;;;11.63;;
47958;SDS011;33718;50.910;-1.514;2022-12-05T09:54:56;12.20;;;10.02;;
47958;SDS011;33718;50.910;-1.514;2022-12-05T09:57:02;10.13;;;9.10;;
47958;SDS011;33718;50.910;-1.514;2022-12-05T09:59:03;8.88;;;7.97;;
47958;SDS011;33718;50.910;-1.514;2022-12-05T10:06:31;9.30;;;7.72;;
47958;SDS011;33718;50.910;-1.514;2022-12-05T10:15:10;14.32;;;12.23;;
47958;SDS011;33718;50.910;-1.514;2022-12-05T10:17:24;16.00;;;10.90;;
47958;SDS011;33718;50.910;-1.514;2022-12-05T10:19:31;10.38;;;9.27;;
47958;SDS011;33718;50.910;-1.514;2022-12-05T10:23:58;14.65;;;9.38;;
47958;SDS011;33718;50.910;-1.514;2022-12-05T10:26:02;14.03;;;10.43;;
47958;SDS011;33718;50.910;-1.514;2022-12-05T10:28:08;14.07;;;11.75;;
47958;SDS011;33718;50.910;-1.514;2022-12-05T10:32:17;11.68;;;10.48;;
47958;SDS011;33718;50.910;-1.514;2022-12-05T10:36:34;13.15;;;10.63;;
47958;SDS011;33718;50.910;-1.514;2022-12-05T10:38:36;11.95;;;9.52;;
47958;SDS011;33718;50.910;-1.514;2022-12-05T10:40:39;11.57;;;10.38;;
47958;SDS011;33718;50.910;-1.514;2022-12-05T10:42:41;11.75;;;9.65;;
47958;SDS011;33718;50.910;-1.514;2022-12-05T10:44:43;13.18;;;10.07;;
47958;SDS011;33718;50.910;-1.514;2022-12-05T10:46:45;12.75;;;11.20;;
47958;SDS011;33718;50.910;-1.514;2022-12-05T10:48:47;9.77;;;8.77;;
47958;SDS011;33718;50.910;-1.514;2022-12-05T10:50:50;9.15;;;8.23;;
47958;SDS011;33718;50.910;-1.514;2022-12-05T10:52:52;11.27;;;9.97;;
47958;SDS011;33718;50.910;-1.514;2022-12-05T10:54:57;12.07;;;10.75;;
47958;SDS011;33718;50.910;-1.514;2022-12-05T10:57:01;10.57;;;9.48;;
47958;SDS011;33718;50.910;-1.514;2022-12-05T10:59:23;14.73;;;11.68;;
47958;SDS011;33718;50.910;-1.514;2022-12-05T11:01:25;14.68;;;11.50;;
47958;SDS011;33718;50.910;-1.514;2022-12-05T11:03:29;13.38;;;11.30;;
47958;SDS011;33718;50.910;-1.514;2022-12-05T11:05:38;11.25;;;9.40;;
47958;SDS011;33718;50.910;-1.514;2022-12-05T11:09:45;12.00;;;9.77;;
47958;SDS011;33718;50.910;-1.514;2022-12-05T11:14:08;11.27;;;9.43;;
47958;SDS011;33718;50.910;-1.514;2022-12-05T11:16:28;10.93;;;8.43;;
47958;SDS011;33718;50.910;-1.514;2022-12-05T11:18:30;15.00;;;11.27;;
47958;SDS011;33718;50.910;-1.514;2022-12-05T11:20:34;9.18;;;8.15;;
47958;SDS011;33718;50.910;-1.514;2022-12-05T11:22:36;10.60;;;8.73;;
47958;SDS011;33718;50.910;-1.514;2022-12-05T11:24:37;9.35;;;8.35;;
47958;SDS011;33718;50.910;-1.514;2022-12-05T11:26:39;11.45;;;10.23;;
47958;SDS011;33718;50.910;-1.514;2022-12-05T11:28:42;12.00;;;8.57;;
47958;SDS011;33718;50.910;-1.514;2022-12-05T11:33:18;8.45;;;7.50;;
47958;SDS011;33718;50.910;-1.514;2022-12-05T11:35:26;9.93;;;8.48;;
47958;SDS011;33718;50.910;-1.514;2022-12-05T11:37:30;12.63;;;9.77;;
47958;SDS011;33718;50.910;-1.514;2022-12-05T11:39:32;10.15;;;8.75;;
47958;SDS011;33718;50.910;-1.514;2022-12-05T11:41:43;9.05;;;7.78;;
47958;SDS011;33718;50.910;-1.514;2022-12-05T11:46:09;12.13;;;10.80;;
47958;SDS011;33718;50.910;-1.514;2022-12-05T11:59:53;10.45;;;9.00;;
47958;SDS011;33718;50.910;-1.514;2022-12-05T12:12:20;11.60;;;9.68;;
47958;SDS011;33718;50.910;-1.514;2022-12-05T12:14:34;9.02;;;7.80;;
47958;SDS011;33718;50.910;-1.514;2022-12-05T12:17:03;8.18;;;7.40;;
47958;SDS011;33718;50.910;-1.514;2022-12-05T12:23:42;8.40;;;7.20;;
47958;SDS011;33718;50.910;-1.514;2022-12-05T12:32:57;9.85;;;8.65;;
47958;SDS011;33718;50.910;-1.514;2022-12-05T12:35:16;14.00;;;9.77;;
47958;SDS011;33718;50.910;-1.514;2022-12-05T12:42:15;10.82;;;8.88;;
47958;SDS011;33718;50.910;-1.514;2022-12-05T12:50:49;8.95;;;6.90;;
47958;SDS011;33718;50.910;-1.514;2022-12-05T12:59:31;7.85;;;6.97;;
47958;SDS011;33718;50.910;-1.514;2022-12-05T13:01:41;12.38;;;9.77;;
47958;SDS011;33718;50.910;-1.514;2022-12-05T13:03:48;8.60;;;7.75;;
47958;SDS011;33718;50.910;-1.514;2022-12-05T13:06:16;8.20;;;7.40;;
47958;SDS011;33718;50.910;-1.514;2022-12-05T13:08:23;10.50;;;8.73;;
47958;SDS011;33718;50.910;-1.514;2022-12-05T13:10:29;10.45;;;8.93;;
47958;SDS011;33718;50.910;-1.514;2022-12-05T13:12:36;9.48;;;8.13;;
47958;SDS011;33718;50.910;-1.514;2022-12-05T13:14:47;11.38;;;8.88;;
47958;SDS011;33718;50.910;-1.514;2022-12-05T13:16:52;9.30;;;7.63;;
47958;SDS011;33718;50.910;-1.514;2022-12-05T13:18:55;8.43;;;7.30;;
47958;SDS011;33718;50.910;-1.514;2022-12-05T13:20:58;7.57;;;6.88;;
47958;SDS011;33718;50.910;-1.514;2022-12-05T13:23:01;6.78;;;6.13;;
47958;SDS011;33718;50.910;-1.514;2022-12-05T13:25:12;7.30;;;6.60;;
47958;SDS011;33718;50.910;-1.514;2022-12-05T13:27:15;7.47;;;6.70;;
47958;SDS011;33718;50.910;-1.514;2022-12-05T13:31:39;10.60;;;9.50;;
47958;SDS011;33718;50.910;-1.514;2022-12-05T13:35:42;10.10;;;9.00;;
47958;SDS011;33718;50.910;-1.514;2022-12-05T13:38:02;12.90;;;10.52;;
47958;SDS011;33718;50.910;-1.514;2022-12-05T13:40:24;15.93;;;11.82;;
47958;SDS011;33718;50.910;-1.514;2022-12-05T13:42:45;11.98;;;10.60;;
47958;SDS011;33718;50.910;-1.514;2022-12-05T13:44:49;12.35;;;9.38;;
47958;SDS011;33718;50.910;-1.514;2022-12-05T13:46:52;9.45;;;8.55;;
47958;SDS011;33718;50.910;-1.514;2022-12-05T13:48:58;9.52;;;8.10;;
47958;SDS011;33718;50.910;-1.514;2022-12-05T13:51:05;13.57;;;9.93;;
47958;SDS011;33718;50.910;-1.514;2022-12-05T14:02:01;9.73;;;8.68;;
47958;SDS011;33718;50.910;-1.514;2022-12-05T14:04:17;9.45;;;8.40;;
47958;SDS011;33718;50.910;-1.514;2022-12-05T14:16:57;8.75;;;7.82;;
47958;SDS011;33718;50.910;-1.514;2022-12-05T14:25:57;8.02;;;6.60;;
47958;SDS011;33718;50.910;-1.514;2022-12-05T14:31:13;10.85;;;9.20;;
47958;SDS011;33718;50.910;-1.514;2022-12-05T14:32:54;11.68;;;10.20;;
47958;SDS011;33718;50.910;-1.514;2022-12-05T14:35:03;9.73;;;8.35;;
47958;SDS011;33718;50.910;-1.514;2022-12-05T14:37:06;11.15;;;8.60;;
47958;SDS011;33718;50.910;-1.514;2022-12-05T14:39:21;9.40;;;7.88;;
47958;SDS011;33718;50.910;-1.514;2022-12-05T14:41:31;11.57;;;10.38;;
47958;SDS011;33718;50.910;-1.514;2022-12-05T14:43:33;11.02;;;8.95;;
47958;SDS011;33718;50.910;-1.514;2022-12-05T14:45:39;11.23;;;8.60;;
47958;SDS011;33718;50.910;-1.514;2022-12-05T14:47:47;8.98;;;8.07;;
47958;SDS011;33718;50.910;-1.514;2022-12-05T14:49:55;8.40;;;7.50;;
47958;SDS011;33718;50.910;-1.514;2022-12-05T14:52:10;7.97;;;6.88;;
47958;SDS011;33718;50.910;-1.514;2022-12-05T14:54:14;11.82;;;9.15;;
47958;SDS011;33718;50.910;-1.514;2022-12-05T14:58:19;9.75;;;7.75;;
47958;SDS011;33718;50.910;-1.514;2022-12-05T15:00:22;9.20;;;8.07;;
47958;SDS011;33718;50.910;-1.514;2022-12-05T15:02:29;11.02;;;9.13;;
47958;SDS011;33718;50.910;-1.514;2022-12-05T15:04:37;13.52;;;8.65;;
47958;SDS011;33718;50.910;-1.514;2022-12-05T15:06:59;7.60;;;6.80;;
47958;SDS011;33718;50.910;-1.514;2022-12-05T15:09:06;8.65;;;7.47;;
47958;SDS011;33718;50.910;-1.514;2022-12-05T15:11:31;9.90;;;8.90;;
47958;SDS011;33718;50.910;-1.514;2022-12-05T15:16:13;7.00;;;6.35;;